Time;durP1;ratioP1;P1;durP2;ratioP2;P2;SDS_P1;SDS_P2;PMS_P1;PMS_P2;Temp;Humidity;BMP_temperature;BMP_pressure;BME280_temperature;BME280_humidity;BME280_pressure;Samples;Min_cycle;Max_cycle;Signal;HPM_P1;HPM_P2
2021/10/18 00:58:19;;;;;;;6.78;5.32;;;;;;;3.20;88.90;99984.00;2340506;68;20805;-82
2021/10/18 01:01:49;;;;;;;5.37;4.74;;;;;;;3.18;88.95;99981.41;2326277;68;985039;-82
2021/10/18 01:05:34;;;;;;;6.69;4.66;;;;;;;3.14;88.93;99987.25;2347185;68;20618;-82
2021/10/18 01:09:28;;;;;;;6.15;4.91;;;;;;;3.10;88.82;99990.53;2337596;68;20316;-83
2021/10/18 01:12:52;;;;;;;7.26;5.26;;;;;;;3.06;88.82;99977.56;2317213;69;20272;-82
2021/10/18 01:21:29;;;;;;;5.13;4.51;;;;;;;3.01;88.76;99988.50;2311186;69;20298;-83
2021/10/18 01:25:00;;;;;;;6.31;5.22;;;;;;;2.98;88.84;99984.97;2314495;69;20252;-82
2021/10/18 01:29:02;;;;;;;7.30;5.21;;;;;;;2.92;88.99;99980.50;2304408;70;20406;-83
2021/10/18 01:32:47;;;;;;;6.86;4.99;;;;;;;2.90;88.80;99977.00;2303220;70;20311;-81
2021/10/18 05:46:25;;;;;;;5.44;4.00;;;;;;;0.88;88.07;100061.88;2332035;68;20261;-82
2021/10/18 05:50:05;;;;;;;8.74;4.76;;;;;;;0.86;88.15;100071.16;2342150;68;21369;-83
2021/10/18 05:53:08;;;;;;;5.15;4.34;;;;;;;0.84;88.30;100068.53;2335218;68;20104;-81
2021/10/18 05:56:10;;;;;;;6.47;4.47;;;;;;;0.85;88.28;100062.63;2338491;68;20872;-80
2021/10/18 05:59:13;;;;;;;5.51;4.64;;;;;;;0.85;88.29;100070.28;2342010;69;20245;-81
2021/10/18 06:02:15;;;;;;;5.31;4.07;;;;;;;0.84;88.34;100065.97;2340230;66;25262;-80
2021/10/18 06:05:20;;;;;;;4.72;4.04;;;;;;;0.82;88.24;100067.59;2339385;68;20348;-81
2021/10/18 06:08:22;;;;;;;8.02;4.70;;;;;;;0.79;88.19;100076.81;2334233;68;20751;-81
2021/10/18 06:11:25;;;;;;;6.10;4.14;;;;;;;0.78;88.33;100080.19;2337988;68;21422;-81
2021/10/18 06:14:28;;;;;;;5.34;4.20;;;;;;;0.78;88.48;100078.50;2346099;68;21146;-81
2021/10/18 06:17:30;;;;;;;8.73;4.54;;;;;;;0.81;88.72;100076.06;2341706;66;27584;-80
2021/10/18 06:20:33;;;;;;;8.80;4.78;;;;;;;0.78;88.56;100085.28;2342191;68;20256;-80
2021/10/18 06:23:35;;;;;;;4.66;4.00;;;;;;;0.86;89.02;100087.38;2342746;69;20286;-81
2021/10/18 06:26:38;;;;;;;5.40;3.99;;;;;;;0.96;89.16;100090.34;2335121;68;20240;-80
2021/10/18 06:29:41;;;;;;;7.65;4.81;;;;;;;1.03;89.27;100090.69;2335077;68;20327;-81
2021/10/18 06:32:47;;;;;;;5.70;4.25;;;;;;;1.06;89.19;100095.94;2329990;66;26163;-80
2021/10/18 06:35:50;;;;;;;8.15;4.20;;;;;;;1.11;nan;100101.28;2315702;69;20289;-79
2021/10/18 06:38:53;;;;;;;6.07;4.46;;;;;;;1.18;89.27;100098.16;2327511;69;20336;-79
2021/10/18 06:41:56;;;;;;;7.85;4.69;;;;;;;1.24;89.30;100097.56;2330940;69;20335;-79
2021/10/18 06:44:58;;;;;;;8.14;4.60;;;;;;;1.31;89.35;100105.56;2332257;68;20333;-79
2021/10/18 06:48:01;;;;;;;6.63;4.65;;;;;;;1.38;89.31;100101.59;2335571;66;24796;-79
2021/10/18 06:51:04;;;;;;;7.13;4.55;;;;;;;1.46;nan;100105.38;2330380;69;20308;-79
2021/10/18 06:54:06;;;;;;;9.56;5.14;;;;;;;1.54;89.29;100110.81;2342351;68;20315;-79
2021/10/18 06:57:09;;;;;;;7.25;4.50;;;;;;;1.65;89.32;100115.59;2330750;68;20249;-79
2021/10/18 07:00:13;;;;;;;9.14;5.10;;;;;;;1.73;89.33;100111.66;2342338;68;20356;-79
2021/10/18 07:03:16;;;;;;;8.60;4.99;;;;;;;1.83;89.19;100119.75;2337500;68;20295;-79
2021/10/18 07:06:27;;;;;;;11.85;5.64;;;;;;;1.91;89.07;100119.22;2341435;68;20277;-80
2021/10/18 08:21:11;;;;;;;8.54;5.22;;;;;;;8.91;76.34;100161.44;2314545;69;20279;-82
2021/10/18 08:24:14;;;;;;;5.97;4.45;;;;;;;9.24;75.49;100154.13;2334736;68;20264;-84
2021/10/18 08:27:17;;;;;;;7.50;5.10;;;;;;;9.52;75.11;100154.50;2337691;68;20254;-84
2021/10/18 08:30:20;;;;;;;6.06;4.51;;;;;;;9.77;74.27;100153.91;2332118;69;20157;-81
2021/10/18 08:33:23;;;;;;;9.68;5.03;;;;;;;10.03;73.45;100151.59;2339823;68;20159;-82
2021/10/18 08:36:25;;;;;;;6.49;4.82;;;;;;;10.25;72.75;100153.59;2337378;69;20179;-82
2021/10/18 08:45:55;;;;;;;6.03;4.59;;;;;;;10.75;70.65;100149.63;2333709;68;20131;-81
2021/10/18 08:49:20;;;;;;;6.28;5.18;;;;;;;10.87;70.20;100145.41;2332952;68;20133;-82
2021/10/18 08:52:23;;;;;;;7.79;5.39;;;;;;;11.02;69.78;100147.22;2334389;69;20141;-81
2021/10/18 08:55:28;;;;;;;7.34;5.64;;;;;;;11.25;69.65;100154.28;2345706;68;20731;-85
2021/10/18 08:58:34;;;;;;;5.57;5.00;;;;;;;11.39;69.21;100148.28;2334727;69;20162;-84
2021/10/18 09:01:57;;;;;;;6.47;5.36;;;;;;;11.61;68.50;100140.56;2323190;69;20228;-84
2021/10/18 09:05:12;;;;;;;7.50;5.26;;;;;;;11.75;67.71;100138.88;2323300;69;20121;-81
2021/10/18 09:09:19;;;;;;;6.90;4.90;;;;;;;11.86;67.50;100132.00;2321905;69;20176;-82
2021/10/18 09:13:29;;;;;;;6.95;5.59;;;;;;;12.01;67.80;100129.41;2331498;68;20215;-81
2021/10/18 09:17:35;;;;;;;5.55;4.89;;;;;;;12.09;67.44;100130.31;2335949;68;610073;-81
2021/10/18 09:21:59;;;;;;;6.41;5.01;;;;;;;12.22;68.20;100136.41;2333563;68;20313;-81
2021/10/18 09:30:35;;;;;;;5.57;4.18;;;;;;;12.64;66.44;100151.16;2348661;68;20171;-82
2021/10/18 11:19:54;;;;;;;2.49;2.08;;;;;;;15.11;59.13;100118.44;2319978;69;20168;-80
2021/10/18 11:24:09;;;;;;;2.63;2.04;;;;;;;14.90;60.05;100116.06;2322883;68;20176;-81
2021/10/18 11:31:42;;;;;;;2.74;2.54;;;;;;;14.69;60.09;100118.88;2329309;69;21090;-80
2021/10/18 13:13:22;;;;;;;6.71;2.17;;;;;;;15.21;61.59;100004.06;2333979;68;20128;-79
2021/10/18 13:17:01;;;;;;;2.25;2.03;;;;;;;15.28;61.15;100002.28;2289283;69;2354035;-80
2021/10/18 13:20:31;;;;;;;2.29;2.06;;;;;;;15.33;61.66;100005.69;2321606;69;20254;-79
2021/10/18 13:24:08;;;;;;;3.45;2.24;;;;;;;15.39;61.66;100008.19;2316120;68;20171;-79
2021/10/18 13:27:28;;;;;;;3.65;1.94;;;;;;;15.41;61.70;100006.41;2325578;68;20390;-79
2021/10/18 13:30:51;;;;;;;7.64;2.25;;;;;;;15.41;61.63;100003.81;2304056;68;988445;-79
2021/10/18 13:34:11;;;;;;;3.30;2.99;;;;;;;15.36;61.49;99996.03;2325912;68;20520;-80
2021/10/18 13:37:35;;;;;;;3.48;2.26;;;;;;;15.36;61.80;99976.84;2327556;69;20160;-79
2021/10/18 13:41:02;;;;;;;3.31;2.46;;;;;;;15.35;61.75;99965.50;2324154;69;20155;-79
2021/10/18 13:44:20;;;;;;;2.10;1.89;;;;;;;15.40;61.86;99963.69;2319994;68;20265;-80
2021/10/18 13:47:40;;;;;;;3.15;2.80;;;;;;;15.47;62.36;99967.09;2324049;69;20171;-80
2021/10/18 13:51:25;;;;;;;4.79;2.61;;;;;;;15.49;61.93;99980.16;2324129;69;20196;-79
2021/10/18 13:54:57;;;;;;;6.63;2.72;;;;;;;15.34;62.01;99982.09;2313644;69;20166;-79
2021/10/18 13:59:05;;;;;;;7.51;2.49;;;;;;;15.24;62.73;99980.50;2322010;69;20224;-79
2021/10/18 14:02:16;;;;;;;6.88;2.58;;;;;;;15.19;63.01;99984.94;2308187;67;20197;-79
2021/10/18 14:05:31;;;;;;;3.24;2.31;;;;;;;15.08;63.18;99985.09;2326329;68;20262;-80
2021/10/18 14:09:51;;;;;;;2.67;2.47;;;;;;;15.00;63.49;99979.06;2325606;69;20241;-79
2021/10/18 14:35:40;;;;;;;2.66;2.34;;;;;;;14.80;65.24;99984.56;2319979;69;20280;-81
2021/10/18 14:38:50;;;;;;;2.35;2.15;;;;;;;14.80;65.68;99988.91;2328392;69;20160;-80
2021/10/18 14:41:53;;;;;;;2.91;2.71;;;;;;;14.82;65.79;99982.78;2328968;69;20182;-80
2021/10/18 14:45:00;;;;;;;3.34;2.33;;;;;;;14.84;65.84;99979.28;2328293;69;20152;-80
2021/10/18 14:48:03;;;;;;;2.80;2.24;;;;;;;14.85;65.92;99986.25;2326929;66;52983;-81
2021/10/18 14:51:06;;;;;;;2.46;2.10;;;;;;;14.85;65.79;99971.41;2327943;69;20225;-81
2021/10/18 14:54:10;;;;;;;2.70;2.10;;;;;;;14.85;65.94;99957.47;2328101;69;20104;-81
2021/10/18 14:57:13;;;;;;;2.74;2.47;;;;;;;14.79;66.22;99940.13;2328046;69;20195;-80
2021/10/18 15:00:16;;;;;;;2.46;2.26;;;;;;;14.72;66.57;99935.84;2323345;69;20227;-80
2021/10/18 15:03:19;;;;;;;2.36;2.15;;;;;;;14.64;66.86;99920.28;2325853;69;20112;-80
2021/10/18 15:06:21;;;;;;;2.21;2.01;;;;;;;14.58;67.23;99925.59;2323325;69;20208;-80
2021/10/18 15:09:24;;;;;;;3.71;2.29;;;;;;;14.51;67.75;99931.75;2329009;69;20117;-80
2021/10/18 15:12:28;;;;;;;3.09;2.24;;;;;;;14.47;67.54;99946.59;2326350;69;20255;-80
2021/10/18 15:15:31;;;;;;;2.67;2.47;;;;;;;14.46;67.74;99947.50;2335193;69;20224;-80
2021/10/18 15:18:34;;;;;;;3.25;2.26;;;;;;;14.44;68.43;99930.97;2328600;69;20160;-80
2021/10/18 15:21:38;;;;;;;2.65;2.45;;;;;;;14.47;68.67;99946.59;2328878;69;20128;-80
2021/10/18 15:24:42;;;;;;;4.13;2.70;;;;;;;14.49;68.14;99960.50;2327990;69;20157;-80
2021/10/18 15:27:44;;;;;;;2.79;2.59;;;;;;;14.54;68.14;99968.28;2328797;69;20109;-81
2021/10/18 15:30:48;;;;;;;6.82;2.54;;;;;;;14.58;68.44;99971.75;2325454;66;25742;-80
2021/10/18 15:33:50;;;;;;;5.13;2.01;;;;;;;14.62;68.73;99987.38;2325927;69;20186;-80
2021/10/18 15:36:55;;;;;;;4.71;2.09;;;;;;;14.67;69.25;99996.03;2328221;69;20148;-79
2021/10/18 15:39:59;;;;;;;1.84;1.45;;;;;;;14.66;69.76;99993.44;2327846;69;20113;-80
2021/10/18 15:43:04;;;;;;;3.97;1.50;;;;;;;14.52;70.27;99989.22;2326491;69;20144;-81
2021/10/18 15:46:07;;;;;;;1.67;1.54;;;;;;;14.26;71.67;100006.03;2327099;66;44676;-80
2021/10/18 15:49:10;;;;;;;2.39;2.13;;;;;;;14.10;72.20;100003.56;2329049;69;20185;-80
2021/10/18 15:52:12;;;;;;;2.71;2.51;;;;;;;13.89;72.62;100001.13;2325922;69;20192;-80
2021/10/18 15:55:15;;;;;;;2.79;1.79;;;;;;;13.70;73.13;100004.75;2327215;69;20201;-81
2021/10/18 15:58:18;;;;;;;2.21;1.40;;;;;;;13.54;73.98;100017.03;2325391;69;20146;-81
2021/10/18 16:01:21;;;;;;;2.54;1.44;;;;;;;13.36;74.93;100009.31;2322441;69;20133;-81
2021/10/18 16:04:24;;;;;;;4.86;2.36;;;;;;;13.17;75.73;99987.66;2332879;69;20151;-80
2021/10/18 16:07:27;;;;;;;3.31;2.22;;;;;;;12.93;76.47;99989.53;2325231;69;20097;-80
2021/10/18 16:10:29;;;;;;;3.89;1.46;;;;;;;12.77;77.07;100000.88;2328098;69;20136;-80
2021/10/18 16:13:32;;;;;;;3.50;2.25;;;;;;;12.61;77.17;100014.81;2332000;69;20150;-80
2021/10/18 16:16:35;;;;;;;2.53;1.76;;;;;;;12.42;77.63;100023.56;2329995;69;20232;-81
2021/10/18 16:19:39;;;;;;;4.53;2.00;;;;;;;12.26;78.20;100015.75;2335369;69;20158;-80
2021/10/18 16:22:42;;;;;;;4.53;1.94;;;;;;;12.16;78.86;100015.75;2326649;69;20227;-81
2021/10/18 16:25:56;;;;;;;2.55;1.42;;;;;;;12.03;79.50;100031.41;2322389;69;20125;-81
2021/10/18 16:29:35;;;;;;;3.61;1.76;;;;;;;11.88;79.60;100028.78;2325051;69;20275;-82
2021/10/18 16:32:52;;;;;;;2.54;1.99;;;;;;;11.70;79.96;100007.94;2343276;69;20102;-82
2021/10/18 16:35:58;;;;;;;2.04;1.89;;;;;;;11.56;80.68;100000.09;2331530;69;20109;-82
2021/10/18 16:39:02;;;;;;;3.72;2.66;;;;;;;11.41;80.95;100003.53;2324792;69;20123;-82
2021/10/18 16:42:05;;;;;;;4.61;3.03;;;;;;;11.26;81.16;100006.09;2325209;69;20155;-82
2021/10/18 16:45:11;;;;;;;4.55;2.30;;;;;;;11.14;81.84;100008.69;2331917;69;20097;-81
2021/10/18 16:48:14;;;;;;;3.64;2.67;;;;;;;11.01;81.95;99993.91;2326317;69;20113;-81
2021/10/18 16:51:17;;;;;;;2.24;2.04;;;;;;;10.92;82.06;100004.25;2317799;69;20121;-81
2021/10/18 16:54:20;;;;;;;3.67;2.85;;;;;;;10.77;82.11;100000.75;2333760;69;20113;-80
2021/10/18 16:57:22;;;;;;;2.60;2.25;;;;;;;10.63;82.37;99999.81;2318074;69;20131;-81
2021/10/18 17:00:25;;;;;;;2.67;2.47;;;;;;;10.49;82.75;100009.25;2337142;69;20155;-82
2021/10/18 17:03:28;;;;;;;3.54;2.45;;;;;;;10.38;83.16;100011.75;2333658;69;20109;-80
2021/10/18 17:06:35;;;;;;;4.29;2.90;;;;;;;10.28;83.31;100021.22;2338883;69;20106;-81
2021/10/18 17:09:38;;;;;;;3.47;3.17;;;;;;;10.18;83.58;100018.50;2325201;69;20110;-81
2021/10/18 17:12:40;;;;;;;2.91;2.58;;;;;;;10.09;83.83;100018.47;2330284;69;20192;-81
2021/10/18 17:15:43;;;;;;;3.46;2.89;;;;;;;9.98;84.23;100011.44;2320606;69;20150;-81
2021/10/18 17:18:46;;;;;;;5.71;4.76;;;;;;;9.88;84.54;100003.59;2336882;69;20154;-80
2021/10/18 17:21:49;;;;;;;4.86;4.06;;;;;;;9.79;84.75;100008.69;2316576;69;20164;-81
2021/10/18 17:24:54;;;;;;;5.60;4.03;;;;;;;9.72;84.88;100004.31;2335613;69;20197;-81
2021/10/18 17:28:02;;;;;;;5.50;4.86;;;;;;;9.69;84.90;99992.19;2327637;69;20105;-81
2021/10/18 17:31:06;;;;;;;4.95;3.95;;;;;;;9.66;85.49;99981.78;2326883;69;20160;-81
2021/10/18 17:34:09;;;;;;;3.60;3.30;;;;;;;9.62;85.72;99986.06;2328543;69;20108;-80
2021/10/18 17:37:12;;;;;;;5.94;4.15;;;;;;;9.58;85.90;99988.63;2329587;69;20217;-81
2021/10/18 17:40:15;;;;;;;6.01;4.34;;;;;;;9.51;85.97;99985.09;2325068;69;20189;-82
2021/10/18 17:43:19;;;;;;;6.55;4.78;;;;;;;9.46;86.28;99989.38;2331824;69;20088;-81
2021/10/18 17:46:21;;;;;;;5.84;4.44;;;;;;;9.43;86.91;99999.72;2328519;69;20205;-82
2021/10/18 17:49:25;;;;;;;5.38;4.19;;;;;;;9.41;87.09;99997.97;2336377;69;20126;-80
2021/10/18 17:52:27;;;;;;;4.64;4.19;;;;;;;9.36;86.97;99997.94;2331733;68;20126;-80
2021/10/18 17:55:30;;;;;;;6.86;4.49;;;;;;;9.30;87.06;100003.03;2343034;69;20116;-81
2021/10/18 17:58:34;;;;;;;6.24;5.20;;;;;;;9.25;86.96;100007.31;2332604;69;20201;-81
2021/10/18 18:01:37;;;;;;;5.15;3.69;;;;;;;9.23;87.49;100021.97;2346242;69;20150;-80
2021/10/18 18:04:42;;;;;;;3.83;3.39;;;;;;;9.19;87.40;100010.72;2336242;69;20194;-79
2021/10/18 18:07:44;;;;;;;5.64;4.15;;;;;;;9.12;87.34;100003.69;2338276;69;20134;-80
2021/10/18 18:10:47;;;;;;;5.47;3.67;;;;;;;9.05;87.40;100007.97;2343649;69;20176;-80
2021/10/18 18:13:50;;;;;;;6.40;4.13;;;;;;;9.02;87.46;100005.34;2336647;68;20113;-80
2021/10/18 18:16:55;;;;;;;5.85;4.36;;;;;;;8.95;87.44;100011.28;2334043;69;20096;-80
2021/10/18 18:20:01;;;;;;;6.11;4.96;;;;;;;8.91;87.46;100009.50;2327796;68;20191;-80
2021/10/18 18:23:04;;;;;;;5.26;4.55;;;;;;;8.86;87.46;100018.94;2324274;69;20142;-80
2021/10/18 18:26:07;;;;;;;6.60;4.50;;;;;;;8.75;87.10;100012.75;2333706;69;20128;-80
2021/10/18 18:29:10;;;;;;;5.54;4.94;;;;;;;8.68;87.24;100029.06;2340807;69;20168;-80
2021/10/18 18:32:14;;;;;;;9.27;5.40;;;;;;;8.66;87.85;100041.13;2333780;66;39360;-81
2021/10/18 18:35:19;;;;;;;7.40;5.75;;;;;;;8.69;88.80;100046.34;2351610;69;20308;-81
2021/10/18 18:38:22;;;;;;;6.76;4.75;;;;;;;8.70;88.90;100063.59;2336626;69;20122;-81
2021/10/18 18:41:25;;;;;;;10.21;5.43;;;;;;;8.62;88.73;100075.59;2329111;69;20273;-81
2021/10/18 18:44:28;;;;;;;8.05;5.36;;;;;;;8.59;89.20;100073.78;2329557;69;20313;-81
2021/10/18 18:47:32;;;;;;;7.01;4.81;;;;;;;8.59;89.36;100068.63;2336428;69;20317;-80
2021/10/18 18:50:35;;;;;;;8.74;5.22;;;;;;;8.57;89.39;100074.63;2338367;69;20298;-79
2021/10/18 18:53:39;;;;;;;6.85;4.96;;;;;;;8.53;89.30;100068.53;2340134;69;20206;-81
2021/10/18 18:56:42;;;;;;;7.65;5.00;;;;;;;8.48;89.10;100065.03;2344457;69;20261;-81
2021/10/18 18:59:45;;;;;;;6.39;5.24;;;;;;;8.41;88.96;100050.25;2334349;69;20148;-80
2021/10/18 19:02:49;;;;;;;6.56;5.86;;;;;;;8.32;88.59;100043.19;2334726;66;26297;-81
2021/10/18 19:05:52;;;;;;;7.20;6.45;;;;;;;8.26;88.36;100035.34;2329062;69;20178;-80
2021/10/18 19:08:55;;;;;;;10.06;7.31;;;;;;;8.20;88.26;100040.41;2329572;69;20324;-80
2021/10/18 19:11:58;;;;;;;7.59;6.59;;;;;;;8.15;88.26;100029.13;2328421;69;20320;-80
2021/10/18 19:15:00;;;;;;;10.48;6.51;;;;;;;8.12;88.33;100029.09;2341595;69;20133;-80
2021/10/18 19:18:03;;;;;;;9.74;6.94;;;;;;;8.08;88.49;100011.78;2332535;69;20388;-81
2021/10/18 19:21:08;;;;;;;11.34;8.15;;;;;;;8.04;88.49;100010.84;2323458;69;20266;-81
2021/10/18 19:24:11;;;;;;;14.85;10.07;;;;;;;7.98;88.35;100025.41;2334203;69;20335;-80
2021/10/18 19:27:14;;;;;;;14.41;9.66;;;;;;;7.93;89.19;100030.50;2327818;69;20267;-80
2021/10/18 19:30:17;;;;;;;13.66;9.52;;;;;;;7.93;89.88;100024.47;2339908;69;20242;-81
2021/10/18 19:33:20;;;;;;;15.41;9.96;;;;;;;7.93;89.60;100042.56;2325241;69;20337;-80
2021/10/18 19:36:25;;;;;;;10.86;7.78;;;;;;;7.93;89.73;100056.38;2344653;69;20289;-80
2021/10/18 19:39:35;;;;;;;12.11;7.91;;;;;;;7.89;89.77;100052.81;2347448;69;20350;-81
2021/10/18 19:42:38;;;;;;;11.50;7.85;;;;;;;7.82;89.46;100066.50;2331687;69;20241;-81
2021/10/18 19:45:43;;;;;;;10.04;7.84;;;;;;;7.70;89.65;100070.56;2329260;69;20261;-81
2021/10/18 19:48:47;;;;;;;13.38;8.66;;;;;;;7.70;89.81;100070.56;2321541;69;20315;-81
2021/10/18 19:51:50;;;;;;;11.80;8.11;;;;;;;7.69;90.00;100068.84;2322338;69;20328;-80
2021/10/18 19:54:54;;;;;;;12.04;7.97;;;;;;;7.65;89.88;100074.81;2323696;69;20297;-81
2021/10/18 19:57:58;;;;;;;11.36;7.56;;;;;;;7.60;90.01;100084.19;2323543;69;20281;-81
2021/10/18 20:01:01;;;;;;;12.14;7.31;;;;;;;7.57;90.18;100090.19;2317627;66;42619;-80
2021/10/18 20:04:05;;;;;;;9.45;6.81;;;;;;;7.54;90.30;100093.59;2322887;69;20364;-81
2021/10/18 20:07:07;;;;;;;8.24;6.85;;;;;;;7.51;90.28;100087.47;2320311;69;20286;-83
2021/10/18 20:10:23;;;;;;;8.26;6.49;;;;;;;7.44;89.88;100093.38;2322011;69;20494;-81
2021/10/18 20:13:26;;;;;;;10.73;7.80;;;;;;;7.36;89.61;100087.16;2326022;69;20737;-80
2021/10/18 20:16:29;;;;;;;10.75;7.71;;;;;;;7.32;89.56;100087.94;2327260;66;28539;-80
2021/10/18 20:19:32;;;;;;;10.65;8.15;;;;;;;7.30;89.67;100068.97;2318081;69;20349;-80
2021/10/18 20:22:35;;;;;;;11.29;8.35;;;;;;;7.25;89.46;100063.72;2324746;69;20293;-81
2021/10/18 20:25:38;;;;;;;12.35;8.24;;;;;;;7.19;89.30;100058.44;2321471;69;20865;-81
2021/10/18 20:28:40;;;;;;;13.31;8.66;;;;;;;7.15;89.12;100072.13;2321781;69;20238;-80
2021/10/18 20:31:43;;;;;;;10.93;7.99;;;;;;;7.12;89.25;100065.19;2324666;66;23103;-81
2021/10/18 20:34:46;;;;;;;12.19;8.06;;;;;;;7.10;89.40;100061.69;2317702;69;20249;-80
2021/10/18 20:37:50;;;;;;;11.25;8.39;;;;;;;7.05;89.47;100058.16;2325869;69;20419;-82
2021/10/18 20:41:09;;;;;;;12.48;8.64;;;;;;;7.04;89.54;100052.97;2322672;69;20340;-80
2021/10/18 20:44:34;;;;;;;10.02;7.36;;;;;;;7.01;89.69;100052.91;2316782;69;20344;-80
2021/10/18 20:47:43;;;;;;;11.39;7.45;;;;;;;6.98;89.44;100062.31;2315980;69;20302;-80
2021/10/18 20:51:01;;;;;;;10.02;7.03;;;;;;;6.93;89.43;100076.84;2322742;69;20337;-80
2021/10/18 20:54:17;;;;;;;14.95;9.35;;;;;;;6.88;89.49;100080.19;2326199;68;20371;-80
2021/10/18 20:58:13;;;;;;;12.55;8.55;;;;;;;6.86;89.63;100076.69;2315291;69;20878;-80
2021/10/18 21:01:42;;;;;;;12.76;8.71;;;;;;;6.82;89.83;100074.84;2314297;69;20176;-80
2021/10/18 21:05:39;;;;;;;11.39;8.11;;;;;;;6.79;90.02;100065.34;2320461;69;20307;-80
2021/10/18 21:08:52;;;;;;;10.93;8.20;;;;;;;6.77;90.30;100076.47;2319823;69;20321;-80
2021/10/18 21:12:20;;;;;;;10.63;7.34;;;;;;;6.77;90.25;100064.44;2318591;69;20277;-80
2021/10/18 21:15:39;;;;;;;12.16;8.64;;;;;;;6.71;89.87;100058.28;2320297;69;20327;-80
2021/10/18 21:19:27;;;;;;;11.59;8.27;;;;;;;6.68;89.90;100076.28;2320613;69;20330;-80
2021/10/18 21:23:09;;;;;;;12.71;7.91;;;;;;;6.67;90.00;100059.94;2317045;69;20310;-80
2021/10/18 21:26:47;;;;;;;10.77;7.49;;;;;;;6.64;89.88;100062.44;2321152;69;20818;-80
2021/10/18 21:30:09;;;;;;;12.29;8.09;;;;;;;6.61;89.88;100057.19;2320133;69;20350;-80
2021/10/18 21:33:52;;;;;;;9.44;7.29;;;;;;;6.57;89.86;100056.28;2318915;69;20305;-80
2021/10/18 21:37:16;;;;;;;;;;;;;;;6.53;90.00;100045.84;2321296;69;20297;-80
2021/10/18 21:41:05;;;;;;;10.95;7.78;;;;;;;6.49;90.06;100044.91;2320016;69;20052;-80
2021/10/18 21:45:19;;;;;;;11.46;8.02;;;;;;;6.47;89.93;100059.50;2320294;69;20847;-80
2021/10/18 21:48:35;;;;;;;9.73;7.81;;;;;;;6.43;90.03;100060.25;2315868;69;20617;-80
2021/10/18 21:51:52;;;;;;;12.25;8.04;;;;;;;6.40;90.16;100055.00;2319859;69;20306;-80
2021/10/18 21:55:17;;;;;;;10.27;8.09;;;;;;;6.39;90.38;100066.16;2315916;69;20323;-80
2021/10/18 21:59:00;;;;;;;11.66;8.14;;;;;;;6.40;90.51;100074.78;2319127;69;20309;-80
2021/10/18 22:03:10;;;;;;;11.84;8.38;;;;;;;6.35;90.57;100072.97;2320042;69;20313;-81
2021/10/18 22:07:03;;;;;;;11.68;7.28;;;;;;;6.33;90.67;100064.34;2319634;69;20329;-80
2021/10/18 22:10:39;;;;;;;10.86;7.70;;;;;;;6.29;90.41;100051.34;2320764;69;20315;-81
2021/10/18 22:14:06;;;;;;;11.01;7.56;;;;;;;6.21;90.13;100058.88;2319925;69;20423;-81
2021/10/18 22:18:01;;;;;;;13.34;8.85;;;;;;;6.21;89.95;100052.84;2321724;69;20618;-80
2021/10/18 22:21:33;;;;;;;12.66;7.97;;;;;;;6.16;90.03;100044.13;2322300;69;21241;-81
2021/10/18 22:25:26;;;;;;;10.07;7.89;;;;;;;6.11;90.20;100044.03;2319026;69;20289;-82
2021/10/18 22:29:19;;;;;;;10.86;7.93;;;;;;;6.09;90.13;100042.22;2306363;69;20313;-81
2021/10/18 22:32:55;;;;;;;9.00;7.55;;;;;;;6.04;90.29;100032.69;2314284;66;63458;-81
2021/10/18 22:37:06;;;;;;;10.45;7.82;;;;;;;6.03;90.59;100030.94;2324034;69;20470;-81
2021/10/18 22:41:02;;;;;;;9.48;7.76;;;;;;;6.05;90.97;100043.88;2316960;69;20438;-81
2021/10/18 22:49:24;;;;;;;10.74;7.55;;;;;;;6.05;91.11;100031.84;2322366;69;20335;-81
2021/10/18 22:53:33;;;;;;;8.41;6.66;;;;;;;6.06;91.13;100030.16;2321001;69;20180;-81
2021/10/18 22:57:24;;;;;;;10.02;7.49;;;;;;;6.06;91.04;100017.25;2318954;69;20338;-81
2021/10/18 23:01:24;;;;;;;11.01;7.72;;;;;;;6.04;91.08;100012.06;2321002;66;62437;-81
2021/10/18 23:05:26;;;;;;;10.43;7.46;;;;;;;6.03;91.17;100012.91;2314895;69;20327;-80
2021/10/18 23:09:20;;;;;;;10.73;7.29;;;;;;;6.02;91.03;100005.13;2324100;69;20751;-80
2021/10/18 23:13:16;;;;;;;11.55;8.43;;;;;;;6.02;91.28;100008.59;2318682;69;20419;-81
2021/10/18 23:17:36;;;;;;;12.64;8.05;;;;;;;6.07;91.54;100016.41;2317403;69;20388;-81
2021/10/18 23:21:43;;;;;;;11.54;8.43;;;;;;;6.15;91.55;100017.50;2303821;69;20395;-81
2021/10/18 23:30:13;;;;;;;10.77;7.54;;;;;;;6.22;91.80;100021.06;2326641;69;20321;-81
2021/10/18 23:33:50;;;;;;;12.26;8.10;;;;;;;6.27;91.97;100025.47;2315648;69;20305;-80
2021/10/18 23:37:24;;;;;;;13.14;9.18;;;;;;;6.38;91.83;100030.03;2323023;69;20301;-80
2021/10/18 23:41:16;;;;;;;11.43;8.06;;;;;;;6.43;91.71;100034.44;2324947;69;20303;-80
2021/10/18 23:44:27;;;;;;;12.88;8.36;;;;;;;6.45;91.67;100052.53;2322326;69;20293;-81
2021/10/18 23:47:51;;;;;;;11.06;8.55;;;;;;;6.48;91.85;100042.31;2321723;67;20285;-81
2021/10/18 23:51:23;;;;;;;11.46;8.00;;;;;;;6.52;91.86;100041.53;2328905;68;20806;-81
2021/10/18 23:55:04;;;;;;;10.86;8.19;;;;;;;6.56;91.73;100028.72;2329439;68;20316;-80
2021/10/18 23:58:34;;;;;;;12.65;8.44;;;;;;;6.64;91.47;100024.63;2331136;69;20383;-80
